createdAt,value
2018-11-20T00:02:47.168Z,10.70
2018-11-20T00:05:47.356Z,10.70
2018-11-20T00:08:52.646Z,10.70
2018-11-20T00:11:55.701Z,10.60
2018-11-20T00:14:43.264Z,10.60
2018-11-20T00:17:43.512Z,10.60
2018-11-20T00:20:43.138Z,10.60
2018-11-20T00:23:39.963Z,10.60
2018-11-20T00:26:39.394Z,10.60
2018-11-20T00:29:38.771Z,10.60
2018-11-20T00:32:38.184Z,10.60
2018-11-20T00:35:28.983Z,10.60
2018-11-20T00:38:35.259Z,10.60
2018-11-20T00:41:28.508Z,10.60
2018-11-20T00:50:39.888Z,10.80
2018-11-20T00:53:39.330Z,10.60
2018-11-20T00:56:39.974Z,10.60
2018-11-20T00:59:39.616Z,10.60
2018-11-20T01:02:46.019Z,10.60
2018-11-20T01:05:45.608Z,10.50
2018-11-20T01:08:45.644Z,10.50
2018-11-20T01:11:44.060Z,10.50
2018-11-20T01:14:51.384Z,10.50
2018-11-20T01:17:58.693Z,10.50
2018-11-20T01:20:48.417Z,10.50
2018-11-20T01:23:47.807Z,10.50
2018-11-20T01:26:50.700Z,10.50
2018-11-20T01:29:57.009Z,10.50
2018-11-20T01:32:59.807Z,10.50
2018-11-20T01:35:57.129Z,10.50
2018-11-20T01:41:57.412Z,10.50
2018-11-20T01:45:03.521Z,10.50
2018-11-20T01:48:01.643Z,10.50
2018-11-20T01:51:06.895Z,10.50
2018-11-20T01:54:06.664Z,10.50
2018-11-20T01:56:57.575Z,10.50
2018-11-20T02:03:13.083Z,10.40
2018-11-20T02:06:16.052Z,10.50
2018-11-20T02:09:15.829Z,10.40
2018-11-20T02:12:15.338Z,10.40
2018-11-20T02:15:15.444Z,10.40
2018-11-20T02:18:14.815Z,10.40
2018-11-20T02:21:14.436Z,10.40
2018-11-20T02:24:14.604Z,10.40
2018-11-20T02:27:14.436Z,10.40
2018-11-20T02:30:07.424Z,10.40
2018-11-20T02:32:55.901Z,10.40
2018-11-20T02:35:48.495Z,10.40
2018-11-20T02:38:54.675Z,10.40
2018-11-20T02:41:56.832Z,10.40
2018-11-20T02:45:00.041Z,10.40
2018-11-20T02:53:57.923Z,10.50
2018-11-20T02:57:00.479Z,10.40
2018-11-20T02:59:53.062Z,10.40
2018-11-20T03:02:59.019Z,10.30
2018-11-20T03:06:01.596Z,10.30
2018-11-20T03:08:52.814Z,10.30
2018-11-20T03:11:52.724Z,10.30
2018-11-20T03:14:52.189Z,10.30
2018-11-20T03:17:54.735Z,10.30
2018-11-20T03:20:54.850Z,10.30
2018-11-20T03:23:54.634Z,10.30
2018-11-20T03:26:54.055Z,10.30
2018-11-20T03:29:53.809Z,10.30
2018-11-20T03:32:44.184Z,10.30
2018-11-20T03:35:43.973Z,10.30
2018-11-20T03:38:44.276Z,10.30
2018-11-20T03:41:43.737Z,10.30
2018-11-20T03:44:33.920Z,10.30
2018-11-20T03:47:33.619Z,10.30
2018-11-20T03:50:31.095Z,10.20
2018-11-20T03:53:31.269Z,10.20
2018-11-20T03:56:31.167Z,10.20
2018-11-20T03:59:30.645Z,10.20
2018-11-20T04:02:30.755Z,10.20
2018-11-20T04:05:30.504Z,10.20
2018-11-20T04:08:33.712Z,10.20
2018-11-20T04:11:33.909Z,10.20
2018-11-20T04:14:33.775Z,10.20
2018-11-20T04:17:32.433Z,10.20
2018-11-20T04:20:30.351Z,10.20
2018-11-20T04:23:30.596Z,10.20
2018-11-20T04:26:30.549Z,10.20
2018-11-20T04:29:30.741Z,10.20
2018-11-20T04:32:23.367Z,10.20
2018-11-20T04:35:23.768Z,10.20
2018-11-20T04:38:23.237Z,10.20
2018-11-20T04:44:27.110Z,10.20
2018-11-20T04:47:24.801Z,10.20
2018-11-20T04:50:24.299Z,10.20
2018-11-20T04:53:24.455Z,10.10
2018-11-20T04:56:24.601Z,10.10
2018-11-20T04:59:24.495Z,10.10
2018-11-20T05:02:23.920Z,10.10
2018-11-20T05:05:13.451Z,10.10
2018-11-20T05:08:13.099Z,10.10
2018-11-20T05:11:13.028Z,10.10
2018-11-20T05:14:15.335Z,10.10
2018-11-20T05:17:14.923Z,10.10
2018-11-20T05:20:14.656Z,10.10
2018-11-20T05:23:14.764Z,10.10
2018-11-20T05:26:14.216Z,10.10
2018-11-20T05:29:15.038Z,10.10
2018-11-20T05:32:07.701Z,10.10
2018-11-20T05:35:07.619Z,10.10
2018-11-20T05:38:07.760Z,10.10
2018-11-20T05:41:07.983Z,10.10
2018-11-20T05:44:07.606Z,10.10
2018-11-20T05:47:07.658Z,10.10
2018-11-20T05:50:07.081Z,10.10
2018-11-20T05:53:06.534Z,10.10
2018-11-20T05:56:06.116Z,10.10
2018-11-20T05:58:54.468Z,10.10
2018-11-20T06:01:55.697Z,10.10
2018-11-20T06:05:03.018Z,10.10
2018-11-20T06:08:10.351Z,10.10
2018-11-20T06:11:17.658Z,10.00
2018-11-20T06:14:25.065Z,10.00
2018-11-20T06:17:24.435Z,10.00
2018-11-20T06:20:23.950Z,10.10
2018-11-20T06:23:23.700Z,10.00
2018-11-20T06:26:23.429Z,10.00
2018-11-20T06:29:16.532Z,10.00
2018-11-20T06:32:22.648Z,10.00
2018-11-20T06:35:24.238Z,10.00
2018-11-20T06:38:24.380Z,10.00
2018-11-20T06:41:23.816Z,10.00
2018-11-20T06:44:31.410Z,10.00
2018-11-20T06:47:31.502Z,10.00
2018-11-20T06:50:30.949Z,10.00
2018-11-20T06:59:28.533Z,10.20
2018-11-20T07:02:28.609Z,10.10
2018-11-20T07:08:22.900Z,10.00
2018-11-20T07:11:22.958Z,10.00
2018-11-20T07:14:22.445Z,10.00
2018-11-20T07:17:27.681Z,10.00
2018-11-20T07:20:30.505Z,10.00
2018-11-20T07:23:33.393Z,10.00
2018-11-20T07:26:33.343Z,10.00
2018-11-20T07:32:31.302Z,10.00
2018-11-20T07:35:27.461Z,10.00
2018-11-20T07:38:26.956Z,10.00
2018-11-20T07:41:26.337Z,10.00
2018-11-20T07:44:26.535Z,10.00
2018-11-20T07:47:16.681Z,10.00
2018-11-20T07:50:15.872Z,10.00
2018-11-20T07:53:15.468Z,10.00
2018-11-20T07:56:15.707Z,9.90
2018-11-20T07:59:22.879Z,10.00
2018-11-20T08:02:30.188Z,10.00
2018-11-20T08:05:32.771Z,10.00
2018-11-20T08:08:24.404Z,10.00
2018-11-20T08:11:23.920Z,10.00
2018-11-20T08:14:29.360Z,10.00
2018-11-20T08:20:23.454Z,9.90
2018-11-20T08:23:23.337Z,9.90
2018-11-20T08:26:17.769Z,9.90
2018-11-20T08:29:17.635Z,9.90
2018-11-20T08:32:16.959Z,9.90
2018-11-20T08:35:24.407Z,9.90
2018-11-20T08:38:24.013Z,9.90
2018-11-20T08:41:25.470Z,9.90
2018-11-20T08:44:25.194Z,9.90
2018-11-20T08:47:25.136Z,9.90
2018-11-20T08:50:23.784Z,9.90
2018-11-20T08:53:31.517Z,9.90
2018-11-20T08:56:31.416Z,9.90
2018-11-20T08:59:31.403Z,9.90
2018-11-20T09:02:23.391Z,9.90
2018-11-20T09:05:23.079Z,9.90
2018-11-20T09:11:36.323Z,9.90
2018-11-20T09:14:36.587Z,9.90
2018-11-20T09:17:36.716Z,9.90
2018-11-20T09:20:36.693Z,9.90
2018-11-20T09:23:36.615Z,9.90
2018-11-20T09:26:36.160Z,10.00
2018-11-20T09:29:42.041Z,10.00
2018-11-20T09:32:41.400Z,10.00
2018-11-20T09:35:41.107Z,10.00
2018-11-20T09:38:48.556Z,10.00
2018-11-20T09:41:39.760Z,10.00
2018-11-20T09:50:49.745Z,10.40
2018-11-20T09:53:49.974Z,10.30
2018-11-20T09:56:50.089Z,10.40
2018-11-20T09:59:49.791Z,10.40
2018-11-20T10:02:49.144Z,10.40
2018-11-20T10:05:38.483Z,10.50
2018-11-20T10:08:45.832Z,10.50
2018-11-20T10:11:48.454Z,10.40
2018-11-20T10:14:48.689Z,10.40
2018-11-20T10:17:48.596Z,10.40
2018-11-20T10:26:45.501Z,10.50
2018-11-20T10:29:45.387Z,10.40
2018-11-20T10:32:45.699Z,10.30
2018-11-20T10:35:45.597Z,10.30
2018-11-20T10:38:45.872Z,10.30
2018-11-20T10:41:45.972Z,10.30
2018-11-20T10:44:52.245Z,10.30
2018-11-20T10:47:49.499Z,10.30
2018-11-20T10:50:49.097Z,10.30
2018-11-20T10:53:49.273Z,10.30
2018-11-20T10:56:49.478Z,10.30
2018-11-20T11:02:47.590Z,10.30
2018-11-20T11:05:54.892Z,10.30
2018-11-20T11:08:55.068Z,10.30
2018-11-20T11:11:54.698Z,10.30
2018-11-20T11:14:54.143Z,10.30
2018-11-20T11:21:04.685Z,10.30
2018-11-20T11:24:03.914Z,10.30
2018-11-20T11:27:03.779Z,10.30
2018-11-20T11:30:03.695Z,10.30
2018-11-20T11:33:03.062Z,10.30
2018-11-20T11:36:02.451Z,10.30
2018-11-20T11:39:02.188Z,10.20
2018-11-20T11:42:07.761Z,10.30
2018-11-20T11:45:13.839Z,10.20
2018-11-20T11:48:19.541Z,10.30
2018-11-20T11:51:19.639Z,10.20
2018-11-20T11:54:22.125Z,10.30
2018-11-20T11:57:21.725Z,10.20
2018-11-20T12:00:21.873Z,10.20
2018-11-20T12:03:27.869Z,10.20
2018-11-20T12:06:27.326Z,10.20
2018-11-20T12:09:27.089Z,10.20
2018-11-20T12:12:27.052Z,10.20
2018-11-20T12:15:27.030Z,10.20
2018-11-20T12:18:26.488Z,10.20
2018-11-20T12:21:26.318Z,10.20
2018-11-20T12:24:23.312Z,10.20
2018-11-20T12:27:25.744Z,10.20
2018-11-20T12:30:30.073Z,10.20
2018-11-20T12:33:34.542Z,10.10
2018-11-20T12:36:41.841Z,10.10
2018-11-20T12:39:38.370Z,10.10
2018-11-20T12:42:41.037Z,10.10
2018-11-20T12:45:39.237Z,10.10
2018-11-20T12:48:29.123Z,10.10
2018-11-20T12:51:21.528Z,10.10
2018-11-20T12:54:21.275Z,10.10
2018-11-20T13:00:35.092Z,10.10
2018-11-20T13:03:33.138Z,10.10
2018-11-20T13:06:32.715Z,10.00
2018-11-20T13:12:47.075Z,10.00
2018-11-20T13:15:51.473Z,10.10
2018-11-20T13:18:54.297Z,10.10
2018-11-20T13:21:51.801Z,10.10
2018-11-20T13:24:38.872Z,10.00
2018-11-20T13:27:38.598Z,10.00
2018-11-20T13:30:38.276Z,10.00
2018-11-20T13:33:28.685Z,10.00
2018-11-20T13:36:22.983Z,10.00
2018-11-20T13:39:23.125Z,10.00
2018-11-20T13:45:26.621Z,10.00
2018-11-20T13:48:26.180Z,10.00
2018-11-20T13:51:33.447Z,10.00
2018-11-20T13:54:36.273Z,10.00
2018-11-20T13:57:26.797Z,10.00
2018-11-20T14:00:32.273Z,10.00
2018-11-20T14:03:42.898Z,10.00
2018-11-20T14:06:38.629Z,10.00
2018-11-20T14:09:38.884Z,10.00
2018-11-20T14:12:38.298Z,10.00
2018-11-20T14:15:38.126Z,10.00
2018-11-20T14:18:44.270Z,10.00
2018-11-20T14:21:44.311Z,10.00
2018-11-20T14:24:39.052Z,9.90
2018-11-20T14:27:39.061Z,9.90
2018-11-20T14:30:39.188Z,9.90
2018-11-20T14:33:38.827Z,9.90
2018-11-20T14:39:51.250Z,9.90
2018-11-20T14:42:51.480Z,9.90
2018-11-20T14:48:50.036Z,9.90
2018-11-20T14:51:49.564Z,9.90
2018-11-20T14:54:49.219Z,9.90
2018-11-20T14:57:48.637Z,9.80
2018-11-20T15:00:48.302Z,9.80
2018-11-20T15:03:48.276Z,9.80
2018-11-20T15:06:47.645Z,9.80
2018-11-20T15:13:00.426Z,9.80
2018-11-20T15:16:00.496Z,9.80
2018-11-20T15:18:59.792Z,9.80
2018-11-20T15:22:00.076Z,9.80
2018-11-20T15:25:00.350Z,9.70
2018-11-20T15:28:00.465Z,9.80
2018-11-20T15:34:00.268Z,9.70
2018-11-20T15:36:50.191Z,9.70
2018-11-20T15:39:49.968Z,9.70
2018-11-20T15:42:46.752Z,9.70
2018-11-20T15:45:46.437Z,9.70
2018-11-20T15:48:46.462Z,9.70
2018-11-20T15:51:46.495Z,9.70
2018-11-20T15:54:47.492Z,9.70
2018-11-20T15:57:54.796Z,9.70
2018-11-20T16:00:54.158Z,9.70
2018-11-20T16:03:54.201Z,9.70
2018-11-20T16:06:53.892Z,9.70
2018-11-20T16:09:53.720Z,9.70
2018-11-20T16:13:00.708Z,9.70
2018-11-20T16:16:08.024Z,9.70
2018-11-20T16:19:15.348Z,9.60
2018-11-20T16:22:23.395Z,9.60
2018-11-20T16:25:23.124Z,9.60
2018-11-20T16:28:22.664Z,9.60
2018-11-20T16:31:15.424Z,9.60
2018-11-20T16:34:15.170Z,9.60
2018-11-20T16:37:15.180Z,9.60
2018-11-20T16:40:15.383Z,9.60
2018-11-20T16:43:10.481Z,9.60
2018-11-20T16:46:10.723Z,9.60
2018-11-20T16:49:10.249Z,9.60
2018-11-20T16:52:07.791Z,9.60
2018-11-20T16:55:07.673Z,9.60
2018-11-20T16:58:07.872Z,9.60
2018-11-20T17:01:07.957Z,9.60
2018-11-20T17:04:07.344Z,9.60
2018-11-20T17:07:07.623Z,9.60
2018-11-20T17:10:07.567Z,9.60
2018-11-20T17:13:03.837Z,9.60
2018-11-20T17:19:18.465Z,9.50
2018-11-20T17:22:18.228Z,9.50
2018-11-20T17:25:18.420Z,9.50
2018-11-20T17:28:11.921Z,9.50
2018-11-20T17:34:24.084Z,9.50
2018-11-20T17:37:31.052Z,9.50
2018-11-20T17:40:38.360Z,9.50
2018-11-20T17:43:31.881Z,9.50
2018-11-20T17:46:31.547Z,9.50
2018-11-20T17:49:31.164Z,9.50
2018-11-20T17:52:38.464Z,9.50
2018-11-20T17:55:38.164Z,9.50
2018-11-20T17:58:33.911Z,9.50
2018-11-20T18:01:33.618Z,9.50
2018-11-20T18:04:33.272Z,9.50
2018-11-20T18:07:33.480Z,9.50
2018-11-20T18:10:39.566Z,9.50
2018-11-20T18:13:33.814Z,9.40
2018-11-20T18:16:33.413Z,9.50
2018-11-20T18:22:48.161Z,9.40
2018-11-20T18:25:48.097Z,9.40
2018-11-20T18:28:48.145Z,9.40
2018-11-20T18:31:50.970Z,9.40
2018-11-20T18:34:49.631Z,9.40
2018-11-20T18:37:49.420Z,9.40
2018-11-20T18:40:52.285Z,9.40
2018-11-20T18:43:51.749Z,9.40
2018-11-20T18:46:51.379Z,9.40
2018-11-20T18:49:50.961Z,9.40
2018-11-20T18:52:51.151Z,9.40
2018-11-20T18:55:50.987Z,9.40
2018-11-20T18:58:53.270Z,9.40
2018-11-20T19:01:49.624Z,9.40
2018-11-20T19:04:41.735Z,9.40
2018-11-20T19:13:51.956Z,9.60
2018-11-20T19:16:58.403Z,9.50
2018-11-20T19:20:04.612Z,9.40
2018-11-20T19:23:03.565Z,9.40
2018-11-20T19:26:06.144Z,9.40
2018-11-20T19:35:03.686Z,9.50
2018-11-20T19:38:03.801Z,9.40
2018-11-20T19:40:56.615Z,9.30
2018-11-20T19:47:07.604Z,9.30
2018-11-20T19:50:07.895Z,9.30
2018-11-20T19:53:08.030Z,9.30
2018-11-20T19:56:06.654Z,9.30
2018-11-20T20:05:16.889Z,9.40
2018-11-20T20:08:16.256Z,9.30
2018-11-20T20:11:16.347Z,9.30
2018-11-20T20:14:16.540Z,9.20
2018-11-20T20:17:16.657Z,9.20
2018-11-20T20:20:16.802Z,9.20
2018-11-20T20:23:16.431Z,9.20
2018-11-20T20:26:09.751Z,9.20
2018-11-20T20:29:09.582Z,9.20
2018-11-20T20:32:09.756Z,9.20
2018-11-20T20:35:09.818Z,9.20
2018-11-20T20:41:18.264Z,9.20
2018-11-20T20:44:18.370Z,9.20
2018-11-20T20:47:18.198Z,9.20
2018-11-20T20:50:21.212Z,9.20
2018-11-20T20:53:20.749Z,9.20
2018-11-20T20:56:20.710Z,9.20
2018-11-20T20:59:20.813Z,9.20
2018-11-20T21:02:20.536Z,9.20
2018-11-20T21:05:20.276Z,9.20
2018-11-20T21:08:20.556Z,9.20
2018-11-20T21:11:26.685Z,9.20
2018-11-20T21:14:32.911Z,9.20
2018-11-20T21:17:32.597Z,9.20
2018-11-20T21:20:32.124Z,9.20
2018-11-20T21:23:32.099Z,9.20
2018-11-20T21:26:31.592Z,9.20
2018-11-20T21:29:31.640Z,9.10
2018-11-20T21:32:31.747Z,9.10
2018-11-20T21:35:32.061Z,9.10
2018-11-20T21:38:31.941Z,9.10
2018-11-20T21:41:31.258Z,9.10
2018-11-20T21:44:30.813Z,9.10
2018-11-20T21:47:30.426Z,9.10
2018-11-20T21:53:34.151Z,9.10
2018-11-20T21:59:32.703Z,9.10
2018-11-20T22:02:27.143Z,9.10
2018-11-20T22:05:26.931Z,9.10
2018-11-20T22:08:26.896Z,9.10
2018-11-20T22:11:26.232Z,9.10
2018-11-20T22:14:32.392Z,9.10
2018-11-20T22:17:32.476Z,9.10
2018-11-20T22:23:31.042Z,9.10
2018-11-20T22:26:30.467Z,9.10
2018-11-20T22:29:32.922Z,9.10
2018-11-20T22:32:33.130Z,9.10
2018-11-20T22:35:25.093Z,9.10
2018-11-20T22:38:12.120Z,9.10
2018-11-20T22:41:12.069Z,9.10
2018-11-20T22:44:11.784Z,9.10
2018-11-20T22:47:11.661Z,9.10
2018-11-20T22:50:09.541Z,9.00
2018-11-20T22:53:09.531Z,9.00
2018-11-20T22:56:04.459Z,9.00
2018-11-20T23:02:08.291Z,9.00
2018-11-20T23:05:07.823Z,9.00
2018-11-20T23:07:58.907Z,9.00
2018-11-20T23:10:40.467Z,9.00
2018-11-20T23:13:21.752Z,9.00
2018-11-20T23:16:03.465Z,9.00
2018-11-20T23:24:41.280Z,9.20
2018-11-20T23:27:22.693Z,9.10
2018-11-20T23:33:02.000Z,9.00
2018-11-20T23:35:43.500Z,9.00
2018-11-20T23:38:24.847Z,9.00
2018-11-20T23:41:06.044Z,9.00
2018-11-20T23:43:47.955Z,9.00
2018-11-20T23:46:28.737Z,9.00
2018-11-20T23:49:15.206Z,9.00
2018-11-20T23:51:51.600Z,9.00
2018-11-20T23:54:33.333Z,9.00
2018-11-20T23:57:14.296Z,9.00
2018-11-20T23:59:54.993Z,9.00
